San José Airport
MGSJ : now visible

Airfield :











YOU CAN JOIN US ON...

 
LOGIN :

Register | Disclaimer

   EN    FR    IT 

 









Legend :    VFR   Marginal VFR   IFR   Intensive IFR   Very Intensive IFR
Visi :
Ceiling :
>= 8 km
>= 3000ft
5 to 8 km
1000 to 3000 ft
1500m to 5 km
500 to 1000 ft
800 to 1500m
200 to 500 ft
< 800m
< 200 ft
Symbols :   Thunderstorms  Fog  Heavy snow  Heavy precipitations  Wind > 20 kt






- Airport Elevation : 29 ft


MGSJ - San José

CURRENT METAR :
  • 160000Z 09014KT 3000 +RA SCT014 OVC080 24/24 Q1010 A2983

EXPIRED METARs :
  • 152300Z 09014KT 3000 RA SCT014 OVC080 25/25 Q1009 A2980
  • 152200Z 09014KT 8000 DZ SCT014 OVC080 25/24 Q1009 A2980

TAF MGSJ
Valid from the 16 at 00:00 until the 17 at 00:00 UTC


152300Z 1600/1624 09008KT 9999 SCT016 BKN090 TX31/1620Z TN23/1612Z
TEMPO 1600/1624 7000 TSRA FEW025CB
BECMG 1515/1517 14014KT SCT018



MET'MAP, your aeronautical weather chart ! - Copyright ORBIFLY December 2007 - Disclaimer

ORBIFLY MET'MAP TEAM :

Programming & Development : Alexandra Zaïnal
Concept & Development : Baudouin d'Aumeries
Co-Development & Prog : Marc-Olivier Méhu
Technical & hardware support : Manuel Goepfert

Contact : metmap@orbifly.com




SOURCES & CREDITS :

   NOAA       Earth
Advisory